sensor_id;sensor_type;location;lat;lon;timestamp;P1;durP1;ratioP1;P2;durP2;ratioP2
50731;SDS011;36700;50.488;2.544;2023-05-10T00:01:15;5.88;;;2.95;;
50731;SDS011;36700;50.488;2.544;2023-05-10T00:03:41;6.80;;;3.20;;
50731;SDS011;36700;50.488;2.544;2023-05-10T00:06:07;5.95;;;2.90;;
50731;SDS011;36700;50.488;2.544;2023-05-10T00:08:33;7.95;;;3.35;;
50731;SDS011;36700;50.488;2.544;2023-05-10T00:10:59;6.40;;;3.15;;
50731;SDS011;36700;50.488;2.544;2023-05-10T00:13:25;5.28;;;2.85;;
50731;SDS011;36700;50.488;2.544;2023-05-10T00:15:51;5.55;;;2.80;;
50731;SDS011;36700;50.488;2.544;2023-05-10T00:18:17;7.07;;;3.05;;
50731;SDS011;36700;50.488;2.544;2023-05-10T00:20:43;6.78;;;3.35;;
50731;SDS011;36700;50.488;2.544;2023-05-10T00:23:11;5.93;;;2.75;;
50731;SDS011;36700;50.488;2.544;2023-05-10T00:25:37;5.55;;;2.83;;
50731;SDS011;36700;50.488;2.544;2023-05-10T00:28:03;9.68;;;3.42;;
50731;SDS011;36700;50.488;2.544;2023-05-10T00:30:29;7.53;;;3.10;;
50731;SDS011;36700;50.488;2.544;2023-05-10T00:32:55;7.60;;;3.17;;
50731;SDS011;36700;50.488;2.544;2023-05-10T00:35:21;5.97;;;2.60;;
50731;SDS011;36700;50.488;2.544;2023-05-10T00:37:47;5.57;;;2.60;;
50731;SDS011;36700;50.488;2.544;2023-05-10T00:40:13;6.32;;;2.55;;
50731;SDS011;36700;50.488;2.544;2023-05-10T00:42:39;6.05;;;2.70;;
50731;SDS011;36700;50.488;2.544;2023-05-10T00:45:06;6.07;;;2.80;;
50731;SDS011;36700;50.488;2.544;2023-05-10T00:47:32;6.20;;;2.55;;
50731;SDS011;36700;50.488;2.544;2023-05-10T00:49:58;6.95;;;2.92;;
50731;SDS011;36700;50.488;2.544;2023-05-10T00:52:26;6.80;;;2.90;;
50731;SDS011;36700;50.488;2.544;2023-05-10T00:54:53;8.88;;;3.00;;
50731;SDS011;36700;50.488;2.544;2023-05-10T00:57:20;6.68;;;2.95;;
50731;SDS011;36700;50.488;2.544;2023-05-10T00:59:47;6.90;;;2.55;;
50731;SDS011;36700;50.488;2.544;2023-05-10T01:02:13;6.00;;;2.60;;
50731;SDS011;36700;50.488;2.544;2023-05-10T01:04:39;6.30;;;2.70;;
50731;SDS011;36700;50.488;2.544;2023-05-10T01:07:06;5.72;;;2.70;;
50731;SDS011;36700;50.488;2.544;2023-05-10T01:09:32;6.60;;;2.88;;
50731;SDS011;36700;50.488;2.544;2023-05-10T01:11:59;6.60;;;2.47;;
50731;SDS011;36700;50.488;2.544;2023-05-10T01:14:27;7.82;;;2.60;;
50731;SDS011;36700;50.488;2.544;2023-05-10T01:16:53;7.68;;;2.83;;
50731;SDS011;36700;50.488;2.544;2023-05-10T01:19:24;7.90;;;2.70;;
50731;SDS011;36700;50.488;2.544;2023-05-10T01:33:01;7.83;;;2.53;;
50731;SDS011;36700;50.488;2.544;2023-05-10T01:43:29;6.93;;;2.45;;
50731;SDS011;36700;50.488;2.544;2023-05-10T01:46:09;7.20;;;2.38;;
50731;SDS011;36700;50.488;2.544;2023-05-10T01:48:40;8.52;;;2.90;;
50731;SDS011;36700;50.488;2.544;2023-05-10T01:51:13;6.90;;;2.30;;
50731;SDS011;36700;50.488;2.544;2023-05-10T01:53:44;6.22;;;2.38;;
50731;SDS011;36700;50.488;2.544;2023-05-10T01:56:13;7.63;;;2.90;;
50731;SDS011;36700;50.488;2.544;2023-05-10T01:58:40;8.27;;;2.80;;
50731;SDS011;36700;50.488;2.544;2023-05-10T02:01:11;5.53;;;2.30;;
50731;SDS011;36700;50.488;2.544;2023-05-10T02:03:38;6.57;;;2.40;;
50731;SDS011;36700;50.488;2.544;2023-05-10T02:06:07;7.38;;;2.60;;
50731;SDS011;36700;50.488;2.544;2023-05-10T02:08:36;6.63;;;2.17;;
50731;SDS011;36700;50.488;2.544;2023-05-10T02:11:02;10.50;;;2.80;;
50731;SDS011;36700;50.488;2.544;2023-05-10T02:13:30;6.72;;;2.30;;
50731;SDS011;36700;50.488;2.544;2023-05-10T02:15:59;7.53;;;2.58;;
50731;SDS011;36700;50.488;2.544;2023-05-10T02:18:28;6.18;;;2.65;;
50731;SDS011;36700;50.488;2.544;2023-05-10T02:20:55;6.55;;;2.35;;
50731;SDS011;36700;50.488;2.544;2023-05-10T02:23:23;7.35;;;2.70;;
50731;SDS011;36700;50.488;2.544;2023-05-10T02:25:49;5.88;;;2.20;;
50731;SDS011;36700;50.488;2.544;2023-05-10T02:28:17;8.27;;;2.67;;
50731;SDS011;36700;50.488;2.544;2023-05-10T02:30:44;6.10;;;2.00;;
50731;SDS011;36700;50.488;2.544;2023-05-10T02:33:13;5.38;;;2.15;;
50731;SDS011;36700;50.488;2.544;2023-05-10T02:35:39;8.57;;;2.45;;
50731;SDS011;36700;50.488;2.544;2023-05-10T02:38:06;8.30;;;2.47;;
50731;SDS011;36700;50.488;2.544;2023-05-10T02:40:34;7.68;;;2.38;;
50731;SDS011;36700;50.488;2.544;2023-05-10T02:43:02;8.23;;;2.50;;
50731;SDS011;36700;50.488;2.544;2023-05-10T02:45:31;7.05;;;2.08;;
50731;SDS011;36700;50.488;2.544;2023-05-10T02:47:58;7.88;;;2.45;;
50731;SDS011;36700;50.488;2.544;2023-05-10T02:50:28;9.27;;;2.63;;
50731;SDS011;36700;50.488;2.544;2023-05-10T02:52:59;6.53;;;2.25;;
50731;SDS011;36700;50.488;2.544;2023-05-10T02:55:29;8.82;;;2.53;;
50731;SDS011;36700;50.488;2.544;2023-05-10T02:57:58;7.50;;;2.20;;
50731;SDS011;36700;50.488;2.544;2023-05-10T03:00:26;6.63;;;2.20;;
50731;SDS011;36700;50.488;2.544;2023-05-10T03:02:53;6.97;;;2.05;;
50731;SDS011;36700;50.488;2.544;2023-05-10T03:05:19;8.30;;;2.70;;
50731;SDS011;36700;50.488;2.544;2023-05-10T03:07:45;9.00;;;2.55;;
50731;SDS011;36700;50.488;2.544;2023-05-10T03:10:11;8.40;;;2.20;;
50731;SDS011;36700;50.488;2.544;2023-05-10T03:18:00;5.93;;;2.10;;
50731;SDS011;36700;50.488;2.544;2023-05-10T03:20:35;5.82;;;2.10;;
50731;SDS011;36700;50.488;2.544;2023-05-10T03:25:32;5.55;;;2.00;;
50731;SDS011;36700;50.488;2.544;2023-05-10T03:28:00;8.35;;;1.92;;
50731;SDS011;36700;50.488;2.544;2023-05-10T03:30:27;9.32;;;2.63;;
50731;SDS011;36700;50.488;2.544;2023-05-10T03:32:53;6.25;;;2.40;;
50731;SDS011;36700;50.488;2.544;2023-05-10T03:35:19;7.30;;;2.20;;
50731;SDS011;36700;50.488;2.544;2023-05-10T03:37:45;7.78;;;2.13;;
50731;SDS011;36700;50.488;2.544;2023-05-10T03:40:12;8.30;;;2.13;;
50731;SDS011;36700;50.488;2.544;2023-05-10T03:42:38;8.70;;;2.25;;
50731;SDS011;36700;50.488;2.544;2023-05-10T03:45:05;7.80;;;2.75;;
50731;SDS011;36700;50.488;2.544;2023-05-10T03:47:31;5.18;;;1.92;;
50731;SDS011;36700;50.488;2.544;2023-05-10T03:49:57;5.18;;;1.85;;
50731;SDS011;36700;50.488;2.544;2023-05-10T03:52:23;7.28;;;2.17;;
50731;SDS011;36700;50.488;2.544;2023-05-10T03:54:49;5.30;;;2.15;;
50731;SDS011;36700;50.488;2.544;2023-05-10T03:57:15;6.80;;;2.28;;
50731;SDS011;36700;50.488;2.544;2023-05-10T03:59:41;6.00;;;2.08;;
50731;SDS011;36700;50.488;2.544;2023-05-10T04:02:07;5.25;;;1.90;;
50731;SDS011;36700;50.488;2.544;2023-05-10T04:04:33;5.35;;;2.10;;
50731;SDS011;36700;50.488;2.544;2023-05-10T04:06:59;3.63;;;1.70;;
50731;SDS011;36700;50.488;2.544;2023-05-10T04:09:25;7.40;;;2.08;;
50731;SDS011;36700;50.488;2.544;2023-05-10T04:11:51;5.00;;;1.80;;
50731;SDS011;36700;50.488;2.544;2023-05-10T04:14:17;7.60;;;2.10;;
50731;SDS011;36700;50.488;2.544;2023-05-10T04:16:43;7.00;;;2.20;;
50731;SDS011;36700;50.488;2.544;2023-05-10T04:19:09;8.95;;;2.13;;
50731;SDS011;36700;50.488;2.544;2023-05-10T04:21:35;6.95;;;2.17;;
50731;SDS011;36700;50.488;2.544;2023-05-10T04:24:01;8.13;;;2.03;;
50731;SDS011;36700;50.488;2.544;2023-05-10T04:26:27;9.43;;;2.38;;
50731;SDS011;36700;50.488;2.544;2023-05-10T04:28:53;9.48;;;2.20;;
50731;SDS011;36700;50.488;2.544;2023-05-10T04:31:19;5.72;;;1.90;;
50731;SDS011;36700;50.488;2.544;2023-05-10T04:33:45;9.57;;;2.25;;
50731;SDS011;36700;50.488;2.544;2023-05-10T04:36:11;8.90;;;2.25;;
50731;SDS011;36700;50.488;2.544;2023-05-10T04:38:37;6.40;;;1.63;;
50731;SDS011;36700;50.488;2.544;2023-05-10T04:41:07;6.57;;;2.05;;
50731;SDS011;36700;50.488;2.544;2023-05-10T04:43:34;4.82;;;1.77;;
50731;SDS011;36700;50.488;2.544;2023-05-10T04:46:00;6.60;;;2.17;;
50731;SDS011;36700;50.488;2.544;2023-05-10T04:48:26;6.30;;;2.50;;
50731;SDS011;36700;50.488;2.544;2023-05-10T04:50:52;8.98;;;1.90;;
50731;SDS011;36700;50.488;2.544;2023-05-10T04:53:18;8.15;;;2.20;;
50731;SDS011;36700;50.488;2.544;2023-05-10T04:55:44;6.00;;;2.05;;
50731;SDS011;36700;50.488;2.544;2023-05-10T04:58:09;5.95;;;2.08;;
50731;SDS011;36700;50.488;2.544;2023-05-10T05:00:35;8.40;;;2.45;;
50731;SDS011;36700;50.488;2.544;2023-05-10T05:03:02;8.05;;;2.30;;
50731;SDS011;36700;50.488;2.544;2023-05-10T05:05:27;6.65;;;2.00;;
50731;SDS011;36700;50.488;2.544;2023-05-10T05:07:53;6.18;;;2.05;;
50731;SDS011;36700;50.488;2.544;2023-05-10T05:10:19;5.63;;;1.75;;
50731;SDS011;36700;50.488;2.544;2023-05-10T05:12:45;7.75;;;2.10;;
50731;SDS011;36700;50.488;2.544;2023-05-10T05:15:11;5.63;;;1.90;;
50731;SDS011;36700;50.488;2.544;2023-05-10T05:17:37;7.75;;;2.15;;
50731;SDS011;36700;50.488;2.544;2023-05-10T05:20:03;5.60;;;1.92;;
50731;SDS011;36700;50.488;2.544;2023-05-10T05:22:29;6.00;;;2.10;;
50731;SDS011;36700;50.488;2.544;2023-05-10T05:24:56;6.60;;;2.35;;
50731;SDS011;36700;50.488;2.544;2023-05-10T05:27:23;6.70;;;2.05;;
50731;SDS011;36700;50.488;2.544;2023-05-10T05:29:55;7.45;;;2.05;;
50731;SDS011;36700;50.488;2.544;2023-05-10T05:32:21;6.30;;;2.30;;
50731;SDS011;36700;50.488;2.544;2023-05-10T05:34:47;6.30;;;2.08;;
50731;SDS011;36700;50.488;2.544;2023-05-10T05:37:17;6.75;;;2.17;;
50731;SDS011;36700;50.488;2.544;2023-05-10T05:39:44;7.05;;;2.05;;
50731;SDS011;36700;50.488;2.544;2023-05-10T05:42:11;15.25;;;2.95;;
50731;SDS011;36700;50.488;2.544;2023-05-10T05:44:38;15.95;;;3.67;;
50731;SDS011;36700;50.488;2.544;2023-05-10T05:47:05;17.17;;;4.40;;
50731;SDS011;36700;50.488;2.544;2023-05-10T05:49:31;18.38;;;4.40;;
50731;SDS011;36700;50.488;2.544;2023-05-10T05:51:58;18.40;;;3.83;;
50731;SDS011;36700;50.488;2.544;2023-05-10T05:54:26;14.73;;;3.80;;
50731;SDS011;36700;50.488;2.544;2023-05-10T05:56:58;14.35;;;3.30;;
50731;SDS011;36700;50.488;2.544;2023-05-10T05:59:25;15.80;;;3.70;;
50731;SDS011;36700;50.488;2.544;2023-05-10T06:01:52;18.15;;;4.07;;
50731;SDS011;36700;50.488;2.544;2023-05-10T06:04:18;15.40;;;3.40;;
50731;SDS011;36700;50.488;2.544;2023-05-10T06:06:44;13.15;;;3.20;;
50731;SDS011;36700;50.488;2.544;2023-05-10T06:09:10;14.75;;;3.05;;
50731;SDS011;36700;50.488;2.544;2023-05-10T06:11:36;12.73;;;3.00;;
50731;SDS011;36700;50.488;2.544;2023-05-10T06:14:03;12.00;;;2.92;;
50731;SDS011;36700;50.488;2.544;2023-05-10T06:16:30;12.80;;;2.80;;
50731;SDS011;36700;50.488;2.544;2023-05-10T06:18:56;12.35;;;2.58;;
50731;SDS011;36700;50.488;2.544;2023-05-10T06:21:22;13.70;;;2.95;;
50731;SDS011;36700;50.488;2.544;2023-05-10T06:23:48;11.23;;;2.90;;
50731;SDS011;36700;50.488;2.544;2023-05-10T06:26:14;10.10;;;2.47;;
50731;SDS011;36700;50.488;2.544;2023-05-10T06:28:40;10.18;;;2.63;;
50731;SDS011;36700;50.488;2.544;2023-05-10T06:31:06;11.95;;;2.90;;
50731;SDS011;36700;50.488;2.544;2023-05-10T06:33:32;10.93;;;2.83;;
50731;SDS011;36700;50.488;2.544;2023-05-10T06:35:59;10.13;;;2.60;;
50731;SDS011;36700;50.488;2.544;2023-05-10T06:38:25;11.00;;;2.58;;
50731;SDS011;36700;50.488;2.544;2023-05-10T06:40:51;11.45;;;2.83;;
50731;SDS011;36700;50.488;2.544;2023-05-10T06:43:17;9.32;;;2.80;;
50731;SDS011;36700;50.488;2.544;2023-05-10T06:45:43;12.43;;;3.15;;
50731;SDS011;36700;50.488;2.544;2023-05-10T06:48:09;8.23;;;2.42;;
50731;SDS011;36700;50.488;2.544;2023-05-10T06:50:35;10.55;;;2.70;;
50731;SDS011;36700;50.488;2.544;2023-05-10T06:53:01;10.32;;;2.75;;
50731;SDS011;36700;50.488;2.544;2023-05-10T06:55:27;8.50;;;2.35;;
50731;SDS011;36700;50.488;2.544;2023-05-10T06:57:53;9.20;;;2.58;;
50731;SDS011;36700;50.488;2.544;2023-05-10T07:00:19;13.05;;;3.28;;
50731;SDS011;36700;50.488;2.544;2023-05-10T07:02:46;10.65;;;2.75;;
50731;SDS011;36700;50.488;2.544;2023-05-10T07:05:12;11.63;;;2.63;;
50731;SDS011;36700;50.488;2.544;2023-05-10T07:07:38;10.55;;;2.58;;
50731;SDS011;36700;50.488;2.544;2023-05-10T07:10:05;11.65;;;2.80;;
50731;SDS011;36700;50.488;2.544;2023-05-10T07:12:31;10.88;;;2.85;;
50731;SDS011;36700;50.488;2.544;2023-05-10T07:14:57;10.52;;;2.75;;
50731;SDS011;36700;50.488;2.544;2023-05-10T07:17:23;8.02;;;2.50;;
50731;SDS011;36700;50.488;2.544;2023-05-10T07:19:49;12.68;;;2.88;;
50731;SDS011;36700;50.488;2.544;2023-05-10T07:22:15;8.88;;;2.60;;
50731;SDS011;36700;50.488;2.544;2023-05-10T07:24:42;11.13;;;2.72;;
50731;SDS011;36700;50.488;2.544;2023-05-10T07:27:08;11.13;;;3.08;;
50731;SDS011;36700;50.488;2.544;2023-05-10T07:29:35;10.02;;;2.85;;
50731;SDS011;36700;50.488;2.544;2023-05-10T07:32:01;6.88;;;2.40;;
50731;SDS011;36700;50.488;2.544;2023-05-10T07:34:27;10.77;;;2.88;;
50731;SDS011;36700;50.488;2.544;2023-05-10T07:36:57;10.93;;;3.03;;
50731;SDS011;36700;50.488;2.544;2023-05-10T07:39:24;10.07;;;2.47;;
50731;SDS011;36700;50.488;2.544;2023-05-10T07:41:51;8.15;;;2.55;;
50731;SDS011;36700;50.488;2.544;2023-05-10T07:44:17;8.32;;;2.65;;
50731;SDS011;36700;50.488;2.544;2023-05-10T07:46:46;10.07;;;2.80;;
50731;SDS011;36700;50.488;2.544;2023-05-10T07:49:13;6.68;;;2.20;;
50731;SDS011;36700;50.488;2.544;2023-05-10T07:51:39;10.25;;;3.17;;
50731;SDS011;36700;50.488;2.544;2023-05-10T07:54:05;8.30;;;2.67;;
50731;SDS011;36700;50.488;2.544;2023-05-10T07:56:31;7.97;;;2.42;;
50731;SDS011;36700;50.488;2.544;2023-05-10T07:58:58;8.82;;;2.17;;
50731;SDS011;36700;50.488;2.544;2023-05-10T08:01:25;7.10;;;2.25;;
50731;SDS011;36700;50.488;2.544;2023-05-10T08:03:51;8.48;;;2.53;;
50731;SDS011;36700;50.488;2.544;2023-05-10T08:06:19;7.50;;;2.35;;
50731;SDS011;36700;50.488;2.544;2023-05-10T08:08:46;9.85;;;2.70;;
50731;SDS011;36700;50.488;2.544;2023-05-10T08:11:16;8.50;;;2.53;;
50731;SDS011;36700;50.488;2.544;2023-05-10T08:13:43;8.02;;;2.17;;
50731;SDS011;36700;50.488;2.544;2023-05-10T08:16:10;8.63;;;2.42;;
50731;SDS011;36700;50.488;2.544;2023-05-10T08:18:36;8.02;;;2.83;;
50731;SDS011;36700;50.488;2.544;2023-05-10T08:21:03;11.15;;;2.35;;
50731;SDS011;36700;50.488;2.544;2023-05-10T08:23:29;9.70;;;2.78;;
50731;SDS011;36700;50.488;2.544;2023-05-10T08:25:55;10.63;;;3.13;;
50731;SDS011;36700;50.488;2.544;2023-05-10T08:28:21;8.50;;;2.70;;
50731;SDS011;36700;50.488;2.544;2023-05-10T08:30:47;8.85;;;2.60;;
50731;SDS011;36700;50.488;2.544;2023-05-10T08:33:13;9.27;;;2.75;;
50731;SDS011;36700;50.488;2.544;2023-05-10T08:35:39;8.82;;;2.50;;
50731;SDS011;36700;50.488;2.544;2023-05-10T08:38:04;9.32;;;2.78;;
50731;SDS011;36700;50.488;2.544;2023-05-10T08:40:30;9.90;;;2.70;;
50731;SDS011;36700;50.488;2.544;2023-05-10T08:43:06;12.88;;;3.03;;
50731;SDS011;36700;50.488;2.544;2023-05-10T08:45:39;10.18;;;2.50;;
50731;SDS011;36700;50.488;2.544;2023-05-10T08:48:11;7.47;;;2.60;;
50731;SDS011;36700;50.488;2.544;2023-05-10T08:50:38;6.07;;;2.03;;
50731;SDS011;36700;50.488;2.544;2023-05-10T08:53:14;5.65;;;2.10;;
50731;SDS011;36700;50.488;2.544;2023-05-10T08:55:41;5.95;;;2.55;;
50731;SDS011;36700;50.488;2.544;2023-05-10T08:58:09;6.25;;;2.50;;
50731;SDS011;36700;50.488;2.544;2023-05-10T09:00:35;7.85;;;2.63;;
50731;SDS011;36700;50.488;2.544;2023-05-10T09:03:03;14.10;;;4.32;;
50731;SDS011;36700;50.488;2.544;2023-05-10T09:05:29;11.23;;;3.65;;
50731;SDS011;36700;50.488;2.544;2023-05-10T09:07:56;12.85;;;5.00;;
50731;SDS011;36700;50.488;2.544;2023-05-10T09:10:22;13.45;;;4.95;;
50731;SDS011;36700;50.488;2.544;2023-05-10T09:12:51;11.07;;;4.32;;
50731;SDS011;36700;50.488;2.544;2023-05-10T09:15:18;13.65;;;4.00;;
50731;SDS011;36700;50.488;2.544;2023-05-10T09:17:45;12.25;;;3.65;;
50731;SDS011;36700;50.488;2.544;2023-05-10T09:20:11;12.75;;;4.00;;
50731;SDS011;36700;50.488;2.544;2023-05-10T09:22:37;8.73;;;3.22;;
50731;SDS011;36700;50.488;2.544;2023-05-10T09:25:07;8.18;;;3.10;;
50731;SDS011;36700;50.488;2.544;2023-05-10T09:27:38;8.57;;;3.28;;
50731;SDS011;36700;50.488;2.544;2023-05-10T09:30:05;9.68;;;3.20;;
50731;SDS011;36700;50.488;2.544;2023-05-10T09:32:50;9.88;;;3.40;;
50731;SDS011;36700;50.488;2.544;2023-05-10T09:35:17;8.82;;;2.85;;
50731;SDS011;36700;50.488;2.544;2023-05-10T09:37:48;8.77;;;3.00;;
50731;SDS011;36700;50.488;2.544;2023-05-10T09:40:19;9.88;;;3.05;;
50731;SDS011;36700;50.488;2.544;2023-05-10T09:43:00;10.52;;;3.35;;
50731;SDS011;36700;50.488;2.544;2023-05-10T09:45:33;9.05;;;3.00;;
50731;SDS011;36700;50.488;2.544;2023-05-10T09:48:00;7.60;;;2.60;;
50731;SDS011;36700;50.488;2.544;2023-05-10T09:50:28;10.20;;;2.95;;
50731;SDS011;36700;50.488;2.544;2023-05-10T09:52:57;8.13;;;2.80;;
50731;SDS011;36700;50.488;2.544;2023-05-10T09:55:46;6.55;;;2.70;;
50731;SDS011;36700;50.488;2.544;2023-05-10T09:58:14;7.95;;;2.90;;
50731;SDS011;36700;50.488;2.544;2023-05-10T10:00:40;8.02;;;2.72;;
50731;SDS011;36700;50.488;2.544;2023-05-10T10:03:17;9.02;;;2.67;;
50731;SDS011;36700;50.488;2.544;2023-05-10T10:05:44;7.25;;;2.45;;
50731;SDS011;36700;50.488;2.544;2023-05-10T10:08:11;6.75;;;2.28;;
50731;SDS011;36700;50.488;2.544;2023-05-10T10:10:38;7.63;;;2.38;;
50731;SDS011;36700;50.488;2.544;2023-05-10T10:13:06;9.02;;;2.65;;
50731;SDS011;36700;50.488;2.544;2023-05-10T10:15:33;7.60;;;2.75;;
50731;SDS011;36700;50.488;2.544;2023-05-10T10:18:00;11.05;;;2.95;;
50731;SDS011;36700;50.488;2.544;2023-05-10T10:20:28;8.55;;;2.40;;
50731;SDS011;36700;50.488;2.544;2023-05-10T10:22:54;10.32;;;2.75;;
50731;SDS011;36700;50.488;2.544;2023-05-10T10:25:20;6.50;;;2.58;;
50731;SDS011;36700;50.488;2.544;2023-05-10T10:35:41;8.23;;;2.78;;
50731;SDS011;36700;50.488;2.544;2023-05-10T10:38:09;8.07;;;2.40;;
50731;SDS011;36700;50.488;2.544;2023-05-10T10:40:35;8.10;;;2.30;;
50731;SDS011;36700;50.488;2.544;2023-05-10T10:48:41;8.57;;;2.13;;
50731;SDS011;36700;50.488;2.544;2023-05-10T10:51:13;8.90;;;2.42;;
50731;SDS011;36700;50.488;2.544;2023-05-10T10:53:40;7.25;;;2.47;;
50731;SDS011;36700;50.488;2.544;2023-05-10T10:56:07;7.50;;;2.15;;
50731;SDS011;36700;50.488;2.544;2023-05-10T10:58:35;5.07;;;1.92;;
50731;SDS011;36700;50.488;2.544;2023-05-10T11:01:15;6.70;;;2.20;;
50731;SDS011;36700;50.488;2.544;2023-05-10T11:06:34;7.95;;;2.30;;
50731;SDS011;36700;50.488;2.544;2023-05-10T11:09:07;7.20;;;2.08;;
50731;SDS011;36700;50.488;2.544;2023-05-10T11:11:34;7.82;;;2.10;;
50731;SDS011;36700;50.488;2.544;2023-05-10T11:14:05;7.45;;;2.10;;
50731;SDS011;36700;50.488;2.544;2023-05-10T11:16:42;7.80;;;2.20;;
50731;SDS011;36700;50.488;2.544;2023-05-10T11:19:09;10.18;;;2.50;;
50731;SDS011;36700;50.488;2.544;2023-05-10T11:21:50;8.95;;;2.58;;
50731;SDS011;36700;50.488;2.544;2023-05-10T11:24:18;7.07;;;1.98;;
50731;SDS011;36700;50.488;2.544;2023-05-10T11:26:49;6.50;;;1.90;;
50731;SDS011;36700;50.488;2.544;2023-05-10T11:31:45;8.77;;;1.95;;
50731;SDS011;36700;50.488;2.544;2023-05-10T11:34:22;5.90;;;2.00;;
50731;SDS011;36700;50.488;2.544;2023-05-10T11:36:53;6.38;;;1.92;;
50731;SDS011;36700;50.488;2.544;2023-05-10T11:39:20;6.30;;;1.90;;
50731;SDS011;36700;50.488;2.544;2023-05-10T11:41:48;7.53;;;2.05;;
50731;SDS011;36700;50.488;2.544;2023-05-10T11:44:15;8.13;;;2.05;;
50731;SDS011;36700;50.488;2.544;2023-05-10T11:46:41;8.02;;;2.00;;
50731;SDS011;36700;50.488;2.544;2023-05-10T11:49:07;6.85;;;1.85;;
50731;SDS011;36700;50.488;2.544;2023-05-10T11:51:34;6.97;;;1.75;;
50731;SDS011;36700;50.488;2.544;2023-05-10T11:54:08;5.43;;;1.80;;
50731;SDS011;36700;50.488;2.544;2023-05-10T11:56:35;6.70;;;1.60;;
50731;SDS011;36700;50.488;2.544;2023-05-10T11:59:02;4.35;;;1.67;;
50731;SDS011;36700;50.488;2.544;2023-05-10T12:01:29;5.55;;;1.73;;
50731;SDS011;36700;50.488;2.544;2023-05-10T12:03:56;7.28;;;2.08;;
50731;SDS011;36700;50.488;2.544;2023-05-10T12:06:29;6.10;;;1.88;;
50731;SDS011;36700;50.488;2.544;2023-05-10T12:08:57;7.15;;;1.98;;
50731;SDS011;36700;50.488;2.544;2023-05-10T12:11:24;10.02;;;1.70;;
50731;SDS011;36700;50.488;2.544;2023-05-10T12:13:53;6.55;;;1.80;;
50731;SDS011;36700;50.488;2.544;2023-05-10T12:16:20;7.60;;;1.70;;
50731;SDS011;36700;50.488;2.544;2023-05-10T12:18:48;8.27;;;1.98;;
50731;SDS011;36700;50.488;2.544;2023-05-10T12:21:15;5.30;;;1.40;;
50731;SDS011;36700;50.488;2.544;2023-05-10T12:23:41;4.93;;;1.35;;
50731;SDS011;36700;50.488;2.544;2023-05-10T12:26:10;8.40;;;1.70;;
50731;SDS011;36700;50.488;2.544;2023-05-10T12:28:36;5.93;;;1.55;;
50731;SDS011;36700;50.488;2.544;2023-05-10T12:31:03;6.97;;;1.67;;
50731;SDS011;36700;50.488;2.544;2023-05-10T12:33:37;5.38;;;1.23;;
50731;SDS011;36700;50.488;2.544;2023-05-10T12:36:11;6.00;;;1.75;;
50731;SDS011;36700;50.488;2.544;2023-05-10T12:38:39;4.90;;;1.20;;
50731;SDS011;36700;50.488;2.544;2023-05-10T12:41:09;5.45;;;1.40;;
50731;SDS011;36700;50.488;2.544;2023-05-10T12:43:36;6.25;;;1.60;;
50731;SDS011;36700;50.488;2.544;2023-05-10T12:48:32;4.78;;;1.55;;
50731;SDS011;36700;50.488;2.544;2023-05-10T12:50:59;3.78;;;1.30;;
50731;SDS011;36700;50.488;2.544;2023-05-10T12:53:26;7.93;;;1.80;;
50731;SDS011;36700;50.488;2.544;2023-05-10T12:55:52;4.78;;;1.40;;
50731;SDS011;36700;50.488;2.544;2023-05-10T12:58:19;5.95;;;1.55;;
50731;SDS011;36700;50.488;2.544;2023-05-10T13:00:45;4.13;;;1.23;;
50731;SDS011;36700;50.488;2.544;2023-05-10T13:03:11;4.47;;;1.50;;
50731;SDS011;36700;50.488;2.544;2023-05-10T13:05:37;5.63;;;1.52;;
50731;SDS011;36700;50.488;2.544;2023-05-10T13:08:04;5.57;;;1.60;;
50731;SDS011;36700;50.488;2.544;2023-05-10T13:10:30;6.50;;;1.48;;
50731;SDS011;36700;50.488;2.544;2023-05-10T13:12:59;5.45;;;1.60;;
50731;SDS011;36700;50.488;2.544;2023-05-10T13:15:26;6.55;;;1.60;;
50731;SDS011;36700;50.488;2.544;2023-05-10T13:17:52;7.22;;;1.58;;
50731;SDS011;36700;50.488;2.544;2023-05-10T13:20:19;7.88;;;1.92;;
50731;SDS011;36700;50.488;2.544;2023-05-10T13:22:45;4.45;;;1.50;;
50731;SDS011;36700;50.488;2.544;2023-05-10T13:25:11;6.72;;;1.50;;
50731;SDS011;36700;50.488;2.544;2023-05-10T13:27:39;6.50;;;1.90;;
50731;SDS011;36700;50.488;2.544;2023-05-10T13:30:06;4.28;;;1.70;;
50731;SDS011;36700;50.488;2.544;2023-05-10T13:32:33;5.68;;;1.65;;
50731;SDS011;36700;50.488;2.544;2023-05-10T13:34:59;4.75;;;1.70;;
50731;SDS011;36700;50.488;2.544;2023-05-10T13:37:25;7.30;;;1.83;;
50731;SDS011;36700;50.488;2.544;2023-05-10T13:39:51;5.00;;;1.63;;
50731;SDS011;36700;50.488;2.544;2023-05-10T13:42:17;6.65;;;1.80;;
50731;SDS011;36700;50.488;2.544;2023-05-10T13:44:43;7.25;;;1.70;;
50731;SDS011;36700;50.488;2.544;2023-05-10T13:47:09;6.70;;;1.73;;
50731;SDS011;36700;50.488;2.544;2023-05-10T13:49:35;7.07;;;1.90;;
50731;SDS011;36700;50.488;2.544;2023-05-10T13:52:01;4.20;;;1.50;;
50731;SDS011;36700;50.488;2.544;2023-05-10T13:54:38;4.72;;;1.50;;
50731;SDS011;36700;50.488;2.544;2023-05-10T13:57:04;2.55;;;1.30;;
50731;SDS011;36700;50.488;2.544;2023-05-10T13:59:30;9.18;;;1.77;;
50731;SDS011;36700;50.488;2.544;2023-05-10T14:01:59;5.32;;;1.85;;
50731;SDS011;36700;50.488;2.544;2023-05-10T14:04:28;8.10;;;1.73;;
50731;SDS011;36700;50.488;2.544;2023-05-10T14:06:54;5.20;;;1.63;;
50731;SDS011;36700;50.488;2.544;2023-05-10T14:09:20;5.65;;;1.55;;
50731;SDS011;36700;50.488;2.544;2023-05-10T14:11:46;7.03;;;1.73;;
50731;SDS011;36700;50.488;2.544;2023-05-10T14:14:12;5.47;;;1.55;;
50731;SDS011;36700;50.488;2.544;2023-05-10T14:16:42;6.82;;;2.03;;
50731;SDS011;36700;50.488;2.544;2023-05-10T14:19:09;4.60;;;1.42;;
50731;SDS011;36700;50.488;2.544;2023-05-10T14:21:35;4.53;;;1.55;;
50731;SDS011;36700;50.488;2.544;2023-05-10T14:24:01;4.75;;;1.40;;
50731;SDS011;36700;50.488;2.544;2023-05-10T14:26:27;4.43;;;1.33;;
50731;SDS011;36700;50.488;2.544;2023-05-10T14:28:53;8.20;;;1.90;;
50731;SDS011;36700;50.488;2.544;2023-05-10T14:31:19;9.80;;;1.90;;
50731;SDS011;36700;50.488;2.544;2023-05-10T14:33:50;10.45;;;2.28;;
50731;SDS011;36700;50.488;2.544;2023-05-10T14:36:17;23.90;;;3.45;;
50731;SDS011;36700;50.488;2.544;2023-05-10T14:38:43;20.27;;;3.15;;
50731;SDS011;36700;50.488;2.544;2023-05-10T14:41:09;16.58;;;3.35;;
50731;SDS011;36700;50.488;2.544;2023-05-10T14:43:39;15.73;;;3.30;;
50731;SDS011;36700;50.488;2.544;2023-05-10T14:46:06;15.45;;;3.25;;
50731;SDS011;36700;50.488;2.544;2023-05-10T14:48:32;15.73;;;3.28;;
50731;SDS011;36700;50.488;2.544;2023-05-10T14:50:58;19.83;;;3.55;;
50731;SDS011;36700;50.488;2.544;2023-05-10T14:53:24;15.25;;;3.20;;
50731;SDS011;36700;50.488;2.544;2023-05-10T14:55:50;17.38;;;3.28;;
50731;SDS011;36700;50.488;2.544;2023-05-10T14:58:16;14.85;;;3.35;;
50731;SDS011;36700;50.488;2.544;2023-05-10T15:00:42;12.27;;;2.80;;
50731;SDS011;36700;50.488;2.544;2023-05-10T15:03:09;12.80;;;3.17;;
50731;SDS011;36700;50.488;2.544;2023-05-10T15:05:34;9.57;;;2.90;;
50731;SDS011;36700;50.488;2.544;2023-05-10T15:08:02;14.13;;;3.63;;
50731;SDS011;36700;50.488;2.544;2023-05-10T15:10:30;13.57;;;3.47;;
50731;SDS011;36700;50.488;2.544;2023-05-10T15:12:55;10.40;;;3.05;;
50731;SDS011;36700;50.488;2.544;2023-05-10T15:15:21;14.70;;;3.40;;
50731;SDS011;36700;50.488;2.544;2023-05-10T15:17:47;13.32;;;3.22;;
50731;SDS011;36700;50.488;2.544;2023-05-10T15:20:13;12.13;;;3.50;;
50731;SDS011;36700;50.488;2.544;2023-05-10T15:22:39;14.68;;;3.53;;
50731;SDS011;36700;50.488;2.544;2023-05-10T15:25:06;12.52;;;3.33;;
50731;SDS011;36700;50.488;2.544;2023-05-10T15:27:32;15.68;;;3.53;;
50731;SDS011;36700;50.488;2.544;2023-05-10T15:29:59;12.55;;;3.08;;
50731;SDS011;36700;50.488;2.544;2023-05-10T15:32:25;14.88;;;3.47;;
50731;SDS011;36700;50.488;2.544;2023-05-10T15:34:51;13.48;;;3.35;;